createdAt,value
2023-05-15T00:01:30.906Z,14.18
2023-05-15T00:03:57.506Z,14.35
2023-05-15T00:06:24.200Z,14.32
2023-05-15T00:12:31.405Z,13.86
2023-05-15T00:14:58.011Z,14.43
2023-05-15T00:17:25.885Z,14.35
2023-05-15T00:19:57.649Z,13.99
2023-05-15T00:22:24.432Z,14.20
2023-05-15T00:24:51.048Z,14.29
2023-05-15T00:27:17.726Z,14.39
2023-05-15T00:29:44.353Z,14.41
2023-05-15T00:32:10.930Z,14.45
2023-05-15T00:34:37.525Z,14.32
2023-05-15T00:37:04.228Z,14.55
2023-05-15T00:39:30.825Z,14.30
2023-05-15T00:41:59.574Z,14.65
2023-05-15T00:44:29.885Z,14.44
2023-05-15T00:46:58.117Z,14.49
2023-05-15T00:49:27.620Z,14.34
2023-05-15T00:51:54.290Z,14.47
2023-05-15T00:54:20.979Z,14.40
2023-05-15T00:56:48.501Z,14.48
2023-05-15T00:59:16.156Z,14.67
2023-05-15T01:01:45.270Z,14.07
2023-05-15T01:04:12.149Z,14.18
2023-05-15T01:06:38.784Z,14.14
2023-05-15T01:09:08.367Z,14.33
2023-05-15T01:11:38.192Z,14.29
2023-05-15T01:14:07.058Z,14.15
2023-05-15T01:16:34.447Z,14.17
2023-05-15T01:19:01.134Z,14.29
2023-05-15T01:21:37.465Z,14.43
2023-05-15T01:27:44.630Z,14.08
2023-05-15T01:30:18.710Z,14.26
2023-05-15T01:33:05.489Z,14.33
2023-05-15T01:35:49.443Z,14.41
2023-05-15T01:38:22.036Z,14.47
2023-05-15T01:40:52.764Z,14.25
2023-05-15T01:43:24.395Z,14.27
2023-05-15T01:45:51.113Z,14.00
2023-05-15T01:48:19.413Z,14.15
2023-05-15T01:50:47.400Z,14.22
2023-05-15T01:53:15.209Z,14.07
2023-05-15T01:55:42.630Z,13.90
2023-05-15T01:58:10.159Z,14.00
2023-05-15T02:00:37.883Z,14.03
2023-05-15T02:03:07.058Z,14.06
2023-05-15T02:05:35.378Z,13.91
2023-05-15T02:08:04.656Z,13.86
2023-05-15T02:10:33.020Z,13.77
2023-05-15T02:13:00.958Z,13.97
2023-05-15T02:15:29.689Z,13.51
2023-05-15T02:17:56.818Z,13.63
2023-05-15T02:20:23.566Z,13.61
2023-05-15T02:22:50.183Z,13.88
2023-05-15T02:25:16.895Z,13.68
2023-05-15T02:27:51.446Z,13.96
2023-05-15T02:30:48.547Z,13.84
2023-05-15T02:33:38.444Z,13.71
2023-05-15T02:36:07.987Z,13.54
2023-05-15T02:38:55.607Z,13.23
2023-05-15T02:41:23.623Z,13.66
2023-05-15T02:43:52.277Z,14.01
2023-05-15T02:46:22.469Z,13.82
2023-05-15T02:48:50.644Z,13.74
2023-05-15T02:51:17.418Z,13.84
2023-05-15T02:53:44.359Z,14.01
2023-05-15T02:56:10.953Z,14.24
2023-05-15T02:58:39.224Z,14.12
2023-05-15T03:01:06.317Z,13.76
2023-05-15T03:03:33.181Z,13.75
2023-05-15T03:06:02.860Z,13.42
2023-05-15T03:08:29.521Z,13.40
2023-05-15T03:10:56.199Z,13.58
2023-05-15T03:13:22.914Z,13.42
2023-05-15T03:15:49.559Z,13.49
2023-05-15T03:18:18.996Z,13.71
2023-05-15T03:20:48.402Z,13.81
2023-05-15T03:23:15.049Z,13.80
2023-05-15T03:25:41.583Z,13.79
2023-05-15T03:28:08.361Z,13.85
2023-05-15T03:30:35.045Z,13.91
2023-05-15T03:33:04.116Z,13.81
2023-05-15T03:35:32.518Z,14.01
2023-05-15T03:37:59.306Z,13.98
2023-05-15T03:40:26.082Z,13.92
2023-05-15T03:42:53.609Z,13.93
2023-05-15T03:45:21.249Z,13.79
2023-05-15T03:47:48.585Z,14.01
2023-05-15T03:50:16.333Z,14.19
2023-05-15T03:52:43.209Z,14.10
2023-05-15T03:55:10.002Z,13.71
2023-05-15T03:57:36.711Z,13.76
2023-05-15T04:00:09.743Z,13.67
2023-05-15T04:02:37.204Z,13.99
2023-05-15T04:05:05.444Z,14.19
2023-05-15T04:07:34.453Z,14.02
2023-05-15T04:10:02.022Z,14.09
2023-05-15T04:12:34.038Z,14.00
2023-05-15T04:15:21.701Z,13.94
2023-05-15T04:17:50.711Z,14.09
2023-05-15T04:20:19.594Z,14.21
2023-05-15T04:22:46.545Z,13.87
2023-05-15T04:25:14.777Z,14.17
2023-05-15T04:27:42.736Z,14.11
2023-05-15T04:30:10.643Z,14.02
2023-05-15T04:32:38.278Z,14.29
2023-05-15T04:35:06.391Z,13.39
2023-05-15T04:37:33.030Z,14.00
2023-05-15T04:39:59.959Z,13.22
2023-05-15T04:42:26.869Z,13.95
2023-05-15T04:44:53.796Z,14.07
2023-05-15T04:47:20.736Z,14.24
2023-05-15T04:49:48.191Z,13.61
2023-05-15T04:52:14.752Z,14.18
2023-05-15T04:54:42.208Z,14.12
2023-05-15T04:57:09.359Z,14.51
2023-05-15T04:59:36.388Z,14.26
2023-05-15T05:02:03.471Z,13.99
2023-05-15T05:04:30.035Z,13.96
2023-05-15T05:06:56.853Z,13.74
2023-05-15T05:09:23.605Z,13.90
2023-05-15T05:11:50.335Z,14.00
2023-05-15T05:14:17.029Z,14.18
2023-05-15T05:16:46.600Z,13.74
2023-05-15T05:19:13.338Z,13.87
2023-05-15T05:21:39.989Z,14.29
2023-05-15T05:24:06.687Z,14.48
2023-05-15T05:26:33.359Z,14.27
2023-05-15T05:29:00.010Z,14.38
2023-05-15T05:31:26.700Z,14.32
2023-05-15T05:33:53.351Z,14.66
2023-05-15T05:36:20.028Z,14.54
2023-05-15T05:38:46.814Z,14.55
2023-05-15T05:41:13.515Z,14.86
2023-05-15T05:43:40.096Z,14.58
2023-05-15T05:46:06.680Z,14.80
2023-05-15T05:48:33.362Z,14.02
2023-05-15T05:50:59.978Z,14.31
2023-05-15T05:53:26.642Z,14.01
2023-05-15T05:55:53.972Z,14.68
2023-05-15T05:58:25.486Z,14.77
2023-05-15T06:00:53.307Z,14.86
2023-05-15T06:03:21.053Z,14.79
2023-05-15T06:05:48.709Z,14.81
2023-05-15T06:08:15.495Z,14.84
2023-05-15T06:10:42.483Z,15.03
2023-05-15T06:13:09.248Z,14.51
2023-05-15T06:15:35.923Z,14.51
2023-05-15T06:18:02.597Z,13.89
2023-05-15T06:20:29.385Z,14.35
2023-05-15T06:22:56.185Z,14.83
2023-05-15T06:25:22.911Z,14.31
2023-05-15T06:27:49.625Z,14.14
2023-05-15T06:30:16.347Z,15.04
2023-05-15T06:32:42.996Z,15.00
2023-05-15T06:35:10.449Z,15.48
2023-05-15T06:37:37.730Z,16.18
2023-05-15T06:40:06.079Z,15.17
2023-05-15T06:42:33.256Z,15.69
2023-05-15T06:45:00.291Z,15.62
2023-05-15T06:47:27.036Z,16.12
2023-05-15T06:49:55.494Z,15.26
2023-05-15T06:52:22.142Z,15.27
2023-05-15T06:54:48.769Z,15.08
2023-05-15T06:57:15.826Z,14.98
2023-05-15T06:59:42.498Z,14.96
2023-05-15T07:02:09.331Z,15.18
2023-05-15T07:04:36.227Z,15.91
2023-05-15T07:07:02.943Z,16.33
2023-05-15T07:09:29.597Z,16.51
2023-05-15T07:11:56.166Z,16.18
2023-05-15T07:14:24.588Z,16.31
2023-05-15T07:16:51.280Z,15.70
2023-05-15T07:19:19.452Z,15.96
2023-05-15T07:21:46.053Z,14.74
2023-05-15T07:24:12.664Z,15.21
2023-05-15T07:26:46.930Z,15.75
2023-05-15T07:29:23.989Z,15.76
2023-05-15T07:31:50.764Z,15.99
2023-05-15T07:34:17.503Z,16.12
2023-05-15T07:36:44.168Z,15.78
2023-05-15T07:39:10.867Z,16.19
2023-05-15T07:41:37.531Z,15.89
2023-05-15T07:44:04.256Z,15.24
2023-05-15T07:46:31.007Z,15.77
2023-05-15T07:48:57.735Z,16.01
2023-05-15T07:51:24.388Z,16.37
2023-05-15T07:53:51.010Z,15.51
2023-05-15T07:56:17.753Z,15.35
2023-05-15T07:58:44.365Z,16.06
2023-05-15T08:01:11.378Z,16.12
2023-05-15T08:03:38.123Z,16.06
2023-05-15T08:06:05.159Z,16.60
2023-05-15T08:08:31.798Z,15.81
2023-05-15T08:10:58.414Z,15.92
2023-05-15T08:13:25.088Z,16.02
2023-05-15T08:15:51.756Z,16.79
2023-05-15T08:18:18.457Z,16.48
2023-05-15T08:20:45.026Z,16.43
2023-05-15T08:23:14.300Z,15.28
2023-05-15T08:25:40.942Z,15.95
2023-05-15T08:28:07.557Z,16.39
2023-05-15T08:30:34.255Z,16.39
2023-05-15T08:33:00.879Z,16.32
2023-05-15T08:35:27.693Z,16.73
2023-05-15T08:37:54.463Z,16.03
2023-05-15T08:40:34.416Z,16.73
2023-05-15T08:43:15.070Z,15.57
2023-05-15T08:45:42.237Z,16.68
2023-05-15T08:48:13.890Z,15.53
2023-05-15T08:50:41.644Z,15.96
2023-05-15T08:53:08.557Z,16.58
2023-05-15T08:55:35.396Z,16.38
2023-05-15T08:58:02.915Z,16.61
2023-05-15T09:00:30.838Z,16.07
2023-05-15T09:03:01.342Z,15.82
2023-05-15T09:05:29.789Z,16.26
2023-05-15T09:07:59.137Z,15.54
2023-05-15T09:10:25.826Z,15.36
2023-05-15T09:12:52.529Z,15.47
2023-05-15T09:15:25.534Z,15.83
2023-05-15T09:17:52.735Z,16.38
2023-05-15T09:20:25.441Z,16.08
2023-05-15T09:22:52.130Z,15.38
2023-05-15T09:25:38.322Z,15.74
2023-05-15T09:28:06.468Z,15.98
2023-05-15T09:30:34.858Z,16.22
2023-05-15T09:33:05.623Z,16.17
2023-05-15T09:35:35.431Z,16.52
2023-05-15T09:38:04.706Z,16.94
2023-05-15T09:40:32.608Z,17.03
2023-05-15T09:42:59.799Z,17.39
2023-05-15T09:45:29.917Z,16.66
2023-05-15T09:47:57.644Z,16.86
2023-05-15T09:50:36.868Z,16.48
2023-05-15T09:53:04.814Z,16.67
2023-05-15T09:55:36.292Z,16.93
2023-05-15T09:58:14.519Z,16.84
2023-05-15T10:00:48.084Z,16.96
2023-05-15T10:03:17.405Z,16.35
2023-05-15T10:05:44.447Z,17.14
2023-05-15T10:08:11.885Z,17.16
2023-05-15T10:10:38.810Z,17.34
2023-05-15T10:13:08.171Z,17.63
2023-05-15T10:15:35.737Z,17.20
2023-05-15T10:18:05.053Z,17.28
2023-05-15T10:20:35.550Z,16.92
2023-05-15T10:23:04.666Z,17.37
2023-05-15T10:25:46.319Z,17.22
2023-05-15T10:28:14.246Z,17.05
2023-05-15T10:30:43.039Z,17.14
2023-05-15T10:33:11.562Z,17.03
2023-05-15T10:35:42.615Z,16.90
2023-05-15T10:38:11.157Z,17.27
2023-05-15T10:40:39.266Z,17.38
2023-05-15T10:43:06.406Z,17.53
2023-05-15T10:45:35.461Z,17.48
2023-05-15T10:48:05.693Z,17.39
2023-05-15T10:50:32.663Z,17.78
2023-05-15T10:53:00.178Z,17.73
2023-05-15T10:55:26.946Z,16.83
2023-05-15T10:57:55.008Z,16.92
2023-05-15T11:00:31.277Z,17.18
2023-05-15T11:02:58.884Z,17.40
2023-05-15T11:05:26.194Z,17.46
2023-05-15T11:08:25.975Z,17.24
2023-05-15T11:10:53.701Z,17.15
2023-05-15T11:13:20.806Z,17.49
2023-05-15T11:15:48.355Z,17.89
2023-05-15T11:18:15.977Z,17.47
2023-05-15T11:20:54.657Z,17.39
2023-05-15T11:23:22.268Z,17.10
2023-05-15T11:25:58.806Z,17.51
2023-05-15T11:28:29.357Z,17.61
2023-05-15T11:31:06.871Z,16.73
2023-05-15T11:33:33.838Z,16.95
2023-05-15T11:36:01.822Z,17.12
2023-05-15T11:38:28.529Z,17.68
2023-05-15T11:40:58.746Z,18.22
2023-05-15T11:43:29.520Z,18.35
2023-05-15T11:46:07.302Z,18.23
2023-05-15T11:48:39.698Z,17.81
2023-05-15T11:51:17.396Z,17.54
2023-05-15T11:53:44.310Z,16.91
2023-05-15T11:56:19.437Z,17.93
2023-05-15T11:58:49.569Z,18.01
2023-05-15T12:01:16.538Z,17.99
2023-05-15T12:03:43.476Z,18.33
2023-05-15T12:06:10.848Z,18.43
2023-05-15T12:08:38.380Z,18.95
2023-05-15T12:11:06.063Z,18.79
2023-05-15T12:13:33.793Z,18.81
2023-05-15T12:16:02.521Z,19.23
2023-05-15T12:18:33.404Z,18.74
2023-05-15T12:21:00.748Z,18.63
2023-05-15T12:23:28.593Z,19.07
2023-05-15T12:26:01.339Z,18.52
2023-05-15T12:28:29.830Z,18.21
2023-05-15T12:30:57.150Z,17.90
2023-05-15T12:33:25.023Z,17.53
2023-05-15T12:35:58.904Z,17.81
2023-05-15T12:38:27.804Z,17.35
2023-05-15T12:40:54.821Z,18.33
2023-05-15T12:43:25.109Z,18.99
2023-05-15T12:45:56.073Z,18.75
2023-05-15T12:48:23.210Z,18.81
2023-05-15T12:50:52.901Z,17.65
2023-05-15T12:53:21.584Z,17.14
2023-05-15T12:55:48.960Z,17.87
2023-05-15T12:58:18.859Z,18.60
2023-05-15T13:00:50.335Z,19.32
2023-05-15T13:03:21.559Z,19.05
2023-05-15T13:05:48.454Z,18.58
2023-05-15T13:08:17.531Z,18.94
2023-05-15T13:10:45.412Z,19.50
2023-05-15T13:13:12.216Z,19.31
2023-05-15T13:15:42.229Z,19.75
2023-05-15T13:18:13.725Z,20.35
2023-05-15T13:20:43.345Z,19.61
2023-05-15T13:23:14.151Z,19.17
2023-05-15T13:25:40.909Z,19.64
2023-05-15T13:28:08.594Z,19.40
2023-05-15T13:30:35.823Z,19.96
2023-05-15T13:33:03.557Z,20.32
2023-05-15T13:35:30.438Z,20.04
2023-05-15T13:37:57.399Z,20.17
2023-05-15T13:40:24.606Z,20.02
2023-05-15T13:42:51.425Z,20.75
2023-05-15T13:45:18.228Z,20.06
2023-05-15T13:47:45.188Z,20.92
2023-05-15T13:50:15.651Z,19.98
2023-05-15T13:52:44.430Z,20.57
2023-05-15T13:55:11.433Z,21.12
2023-05-15T13:57:39.589Z,20.51
2023-05-15T14:00:07.926Z,20.68
2023-05-15T14:02:34.631Z,21.10
2023-05-15T14:05:01.827Z,20.75
2023-05-15T14:07:31.858Z,20.71
2023-05-15T14:09:58.555Z,20.69
2023-05-15T14:12:25.473Z,20.51
2023-05-15T14:14:52.165Z,20.41
2023-05-15T14:17:18.764Z,20.70
2023-05-15T14:19:45.589Z,20.93
2023-05-15T14:22:12.272Z,20.49
2023-05-15T14:24:38.947Z,20.41
2023-05-15T14:27:06.044Z,20.88
2023-05-15T14:29:32.722Z,20.36
2023-05-15T14:31:59.374Z,20.49
2023-05-15T14:34:26.130Z,19.82
2023-05-15T14:36:52.757Z,19.60
2023-05-15T14:39:19.552Z,20.24
2023-05-15T14:41:46.280Z,20.35
2023-05-15T14:44:12.988Z,19.93
2023-05-15T14:46:42.593Z,20.56
2023-05-15T14:49:09.439Z,20.47
2023-05-15T14:51:36.094Z,20.80
2023-05-15T14:54:04.399Z,20.85
2023-05-15T14:56:31.654Z,20.73
2023-05-15T14:58:58.277Z,20.01
2023-05-15T15:01:25.001Z,19.48
2023-05-15T15:03:51.874Z,19.49
2023-05-15T15:06:18.719Z,20.20
2023-05-15T15:08:45.276Z,20.75
2023-05-15T15:11:12.034Z,20.36
2023-05-15T15:13:38.650Z,20.41
2023-05-15T15:16:05.400Z,20.48
2023-05-15T15:18:32.106Z,20.56
2023-05-15T15:20:58.807Z,21.02
2023-05-15T15:23:25.486Z,20.57
2023-05-15T15:25:52.134Z,20.71
2023-05-15T15:28:18.756Z,20.82
2023-05-15T15:30:45.555Z,20.58
2023-05-15T15:33:12.179Z,20.13
2023-05-15T15:35:38.901Z,20.02
2023-05-15T15:38:05.699Z,19.97
2023-05-15T15:40:32.807Z,19.52
2023-05-15T15:43:01.551Z,19.46
2023-05-15T15:45:28.272Z,19.52
2023-05-15T15:47:55.059Z,19.48
2023-05-15T15:50:21.722Z,19.54
2023-05-15T15:52:48.424Z,19.13
2023-05-15T15:55:15.059Z,19.34
2023-05-15T15:57:41.687Z,18.82
2023-05-15T16:00:09.586Z,19.63
2023-05-15T16:02:36.816Z,18.76
2023-05-15T16:05:04.010Z,19.11
2023-05-15T16:07:30.774Z,19.33
2023-05-15T16:10:10.882Z,19.53
2023-05-15T16:12:40.847Z,19.58
2023-05-15T16:15:21.666Z,19.15
2023-05-15T16:17:54.340Z,19.43
2023-05-15T16:20:21.962Z,19.88
2023-05-15T16:22:48.628Z,19.40
2023-05-15T16:25:15.287Z,19.43
2023-05-15T16:27:41.895Z,19.54
2023-05-15T16:30:09.440Z,19.30
2023-05-15T16:32:36.301Z,18.74
2023-05-15T16:35:03.444Z,19.02
2023-05-15T16:37:30.059Z,19.32
2023-05-15T16:39:57.867Z,19.17
2023-05-15T16:42:24.524Z,19.30
2023-05-15T16:44:51.407Z,19.25
2023-05-15T16:47:18.016Z,18.65
2023-05-15T16:49:45.794Z,18.27
2023-05-15T16:52:13.557Z,18.51
2023-05-15T16:54:41.861Z,18.12
2023-05-15T16:57:08.481Z,18.25
2023-05-15T16:59:35.292Z,18.31
2023-05-15T17:02:02.000Z,18.61
2023-05-15T17:04:31.457Z,18.24
2023-05-15T17:06:59.466Z,18.65
2023-05-15T17:09:26.334Z,18.65
2023-05-15T17:11:53.009Z,19.00
2023-05-15T17:14:19.748Z,18.14
2023-05-15T17:16:46.400Z,18.34
2023-05-15T17:19:13.282Z,18.02
2023-05-15T17:21:39.992Z,18.26
2023-05-15T17:24:06.846Z,18.30
2023-05-15T17:26:33.439Z,17.89
2023-05-15T17:29:00.040Z,17.81
2023-05-15T17:31:28.881Z,18.30
2023-05-15T17:33:55.637Z,18.62
2023-05-15T17:36:22.314Z,18.17
2023-05-15T17:38:48.918Z,17.90
2023-05-15T17:41:15.610Z,18.23
2023-05-15T17:43:42.191Z,17.72
2023-05-15T17:46:09.022Z,18.01
2023-05-15T17:48:36.077Z,18.35
2023-05-15T17:51:02.819Z,18.47
2023-05-15T17:53:29.502Z,18.21
2023-05-15T17:55:56.381Z,17.30
2023-05-15T17:58:23.024Z,17.79
2023-05-15T18:00:51.664Z,18.19
2023-05-15T18:03:18.362Z,18.27
2023-05-15T18:05:46.769Z,17.14
2023-05-15T18:08:13.923Z,17.17
2023-05-15T18:10:40.570Z,17.27
2023-05-15T18:13:07.197Z,17.03
2023-05-15T18:15:35.262Z,16.83
2023-05-15T18:18:02.609Z,16.89
2023-05-15T18:20:29.625Z,16.45
2023-05-15T18:22:56.315Z,17.13
2023-05-15T18:25:23.076Z,17.62
2023-05-15T18:27:49.755Z,17.64
2023-05-15T18:30:16.552Z,17.94
2023-05-15T18:32:43.205Z,17.77
2023-05-15T18:35:12.013Z,17.77
2023-05-15T18:37:41.361Z,17.24
2023-05-15T18:40:08.765Z,17.71
2023-05-15T18:42:35.539Z,17.46
2023-05-15T18:45:02.345Z,17.35
2023-05-15T18:47:29.094Z,17.49
2023-05-15T18:49:55.974Z,17.56
2023-05-15T18:52:22.895Z,17.72
2023-05-15T18:54:49.566Z,16.97
2023-05-15T18:57:16.209Z,17.29
2023-05-15T18:59:42.853Z,17.47
2023-05-15T19:02:12.250Z,17.74
2023-05-15T19:04:38.862Z,17.64
2023-05-15T19:07:06.369Z,17.95
2023-05-15T19:09:33.018Z,18.09
2023-05-15T19:12:00.276Z,17.94
2023-05-15T19:14:26.936Z,18.09
2023-05-15T19:16:54.102Z,18.07
2023-05-15T19:19:23.806Z,17.99
2023-05-15T19:21:51.934Z,18.06
2023-05-15T19:24:19.064Z,17.99
2023-05-15T19:26:45.857Z,17.88
2023-05-15T19:29:12.567Z,18.01
2023-05-15T19:31:39.473Z,18.08
2023-05-15T19:34:06.275Z,17.23
2023-05-15T19:36:32.892Z,17.63
2023-05-15T19:39:04.333Z,17.50
2023-05-15T19:41:30.957Z,16.92
2023-05-15T19:43:57.585Z,16.10
2023-05-15T19:46:24.372Z,16.50
2023-05-15T19:48:51.005Z,16.92
2023-05-15T19:51:18.853Z,17.56
2023-05-15T19:53:45.682Z,17.30
2023-05-15T19:56:13.843Z,17.24
2023-05-15T19:58:40.511Z,17.30
2023-05-15T20:01:07.745Z,17.11
2023-05-15T20:03:34.611Z,17.18
2023-05-15T20:06:02.590Z,17.09
2023-05-15T20:08:29.581Z,17.09
2023-05-15T20:10:57.037Z,17.02
2023-05-15T20:13:24.235Z,17.23
2023-05-15T20:15:57.072Z,17.53
2023-05-15T20:18:25.170Z,17.20
2023-05-15T20:20:54.506Z,17.36
2023-05-15T20:23:22.085Z,17.35
2023-05-15T20:25:50.769Z,17.55
2023-05-15T20:28:17.990Z,17.37
2023-05-15T20:30:47.343Z,17.55
2023-05-15T20:33:14.602Z,17.65
2023-05-15T20:35:42.769Z,17.61
2023-05-15T20:38:10.517Z,17.54
2023-05-15T20:40:37.510Z,17.56
2023-05-15T20:43:04.679Z,17.48
2023-05-15T20:45:34.174Z,17.40
2023-05-15T20:48:01.248Z,17.32
2023-05-15T20:50:28.419Z,17.14
2023-05-15T20:52:55.760Z,17.10
2023-05-15T20:55:22.710Z,16.82
2023-05-15T20:57:50.368Z,16.91
2023-05-15T21:00:18.233Z,17.01
2023-05-15T21:02:46.581Z,17.15
2023-05-15T21:05:13.805Z,17.22
2023-05-15T21:07:40.853Z,17.35
2023-05-15T21:10:07.941Z,17.43
2023-05-15T21:12:34.613Z,17.12
2023-05-15T21:15:02.164Z,16.85
2023-05-15T21:17:29.014Z,16.73
2023-05-15T21:19:57.726Z,16.86
2023-05-15T21:22:24.931Z,16.91
2023-05-15T21:24:51.827Z,16.61
2023-05-15T21:27:18.651Z,16.71
2023-05-15T21:29:45.389Z,16.33
2023-05-15T21:32:12.023Z,16.71
2023-05-15T21:34:39.788Z,16.50
2023-05-15T21:37:06.448Z,16.71
2023-05-15T21:39:33.156Z,16.66
2023-05-15T21:41:59.790Z,16.89
2023-05-15T21:44:26.415Z,17.16
2023-05-15T21:46:53.368Z,17.37
2023-05-15T21:49:20.005Z,17.34
2023-05-15T21:51:46.809Z,17.40
2023-05-15T21:54:13.514Z,17.31
2023-05-15T21:56:41.173Z,17.33
2023-05-15T21:59:08.216Z,17.37
2023-05-15T22:01:36.284Z,17.56
2023-05-15T22:04:03.332Z,17.06
2023-05-15T22:06:29.957Z,16.95
2023-05-15T22:08:57.558Z,17.04
2023-05-15T22:11:25.560Z,16.92
2023-05-15T22:13:52.175Z,17.11
2023-05-15T22:16:19.410Z,17.44
2023-05-15T22:18:47.733Z,17.33
2023-05-15T22:21:15.226Z,17.13
2023-05-15T22:23:41.892Z,16.85
2023-05-15T22:26:08.458Z,16.83
2023-05-15T22:28:35.111Z,17.22
2023-05-15T22:31:01.685Z,17.43
2023-05-15T22:33:28.347Z,17.40
2023-05-15T22:35:55.049Z,17.82
2023-05-15T22:38:21.986Z,18.01
2023-05-15T22:40:52.497Z,17.52
2023-05-15T22:43:19.517Z,17.34
2023-05-15T22:45:46.231Z,17.14
2023-05-15T22:48:12.905Z,16.69
2023-05-15T22:50:39.636Z,17.08
2023-05-15T22:53:06.307Z,17.25
2023-05-15T22:55:33.014Z,17.25
2023-05-15T22:57:59.631Z,17.44
2023-05-15T23:00:26.474Z,17.35
2023-05-15T23:02:55.373Z,17.59
2023-05-15T23:05:22.495Z,17.51
2023-05-15T23:07:49.110Z,17.45
2023-05-15T23:10:15.788Z,17.46
2023-05-15T23:12:42.531Z,17.21
2023-05-15T23:15:12.213Z,17.19
2023-05-15T23:17:39.245Z,17.11
2023-05-15T23:20:13.563Z,17.26
2023-05-15T23:22:40.488Z,17.36
2023-05-15T23:25:07.526Z,17.55
2023-05-15T23:27:34.285Z,17.58
2023-05-15T23:30:01.839Z,17.68
2023-05-15T23:32:28.557Z,17.68
2023-05-15T23:34:55.658Z,17.73
2023-05-15T23:37:22.465Z,17.52
2023-05-15T23:39:49.154Z,17.48
2023-05-15T23:42:16.012Z,17.58
2023-05-15T23:44:42.714Z,17.09
2023-05-15T23:47:09.401Z,17.13
2023-05-15T23:49:36.302Z,16.91
2023-05-15T23:52:02.992Z,16.91
2023-05-15T23:54:29.669Z,17.14
2023-05-15T23:56:56.319Z,16.92
2023-05-15T23:59:23.044Z,17.00
